Cambria, WI

12:42 AM CDT on May 01, 2017 (GMT -0500)
MD6359 | | Change Station

Elev 944 ft 43.54 °N, 89.11 °W | Updated 2 hours ago

Rain
Rain
39.0 °F
Feels Like 39 °F
N
3.0
Wind Variable Wind from East

Today
High -- | Low -- °F
--% Chance of Precip.
Yesterday
High -- | Low -- °F
Precip. -- in
Pressure 29.57 in
Visibility 3.0 miles
Clouds Overcast 800 ft
Windchill 39 °F
Dew Point 35 °F
Humidity 87%
Rainfall 0.28 in
Snow Depth Not available.
5:48 AM 7:59 PM
Waxing Crescent, 29% visible
METAR KUNU 010535Z AUTO 06013G21KT 3SM VCTSRA OVC008 04/04 A2957 RMK AO2 LTG DSNT E P0002 T00400035
Pressure 29.57 in
Visibility 3.0 miles
Clouds Overcast 800 ft
Windchill 39 °F
Dew Point 35 °F
Humidity 87%
Rainfall 0.28 in
Snow Depth Not available.
5:48 AM 7:59 PM
Waxing Crescent, 29% visible
METAR KUNU 010535Z AUTO 06013G21KT 3SM VCTSRA OVC008 04/04 A2957 RMK AO2 LTG DSNT E P0002 T00400035

Get Severe Weather Alerts

Thanks for signing up!

Be on the lookout for a verification email in your inbox.

You'll start receiving the daily forecast at 8 AM.

×

10-Day Weather Forecast

Almanac

Astronomy

May. 01, 2017 Rise Set
Actual Time
Civil Twilight
Nautical Twilight
Astronomical Twilight
Moon
Length of Visible Light
Length of Day
Tomorrow will be .
, % of the Moon is Illuminated

Today's Extremes

State Highs State Lows

Community

WunderPhotos

WunderBlog® & News

Nearby

Air Quality

  Air Quality AQ Index Pollutant
Not available.

Snow Depth

Station Depth Elevation

Earthquake Activity

City Distance Mag. Time & Date
Minimum magnitude displayed is 2.5.

Coastal Water Temperatures

Place Temperature

Stations

Nearby Weather Stations

Station Location Temp. Windchill Dew Point Humidity Wind Precip. Elev Updated Type
                   

Watches & Warnings

There are currently no watches in effect.